^^
Station Historical Data
Daily Summary for March 09, 2018 Units:  English    Metric   Both
« Previous Day
Next Day »
Daily Weekly Monthly Yearly Custom
  High: Low: Average:
Temperature: TemperatureF °F 62.6 °F 73.2 °F
Dew Point: DewpointF °F 35.2 °F 45.2 °F
Humidity: Humidity% 29% 37%
Wind Speed: WindSpeedMPHmph -999.9mph -3.3mph
Wind Gust: WindSpeedGustMPHmph - -
Wind- - NE
Pressure: PressureIn in 29.61 in -
Precipitation: 0.00 in    
Historical Graphs
 
 
Tabular Data for March 09, 2018
Time Temperature Dew Point Pressure Wind Wind Speed Wind Gust Humidity Rainfall Rate (Hourly) solar Conditions
TemperatureF °F DewpointF °F PressureIn in Calm     Humidity% HourlyPrecipIn in SoftwareType W/m2 Conditions
08:13 62.8 °F 35.4 °F 29.74 in North -999.9 mph -999.0 mph 36% 0.00 in meteobridge W/m2
08:19 62.8 °F 36.1 °F 29.74 in North 12.1 mph 13.0 mph 37% 0.00 in meteobridge W/m2
08:25 62.6 °F 35.2 °F 29.74 in ENE 6.9 mph 15.0 mph 36% 0.00 in meteobridge W/m2
08:31 63.0 °F 37.6 °F 29.75 in NNE 10.1 mph 13.0 mph 39% 0.00 in meteobridge W/m2
08:37 63.0 °F 40.6 °F 29.75 in NNE 13.0 mph 14.0 mph 44% 0.00 in meteobridge W/m2
08:43 62.8 °F 42.8 °F 29.75 in NE 14.1 mph 20.0 mph 48% 0.00 in meteobridge W/m2
08:50 63.0 °F 40.6 °F 29.75 in NNE 8.9 mph 13.0 mph 44% 0.00 in meteobridge W/m2
08:56 63.1 °F 43.2 °F 29.75 in North 8.9 mph 18.0 mph 48% 0.00 in meteobridge W/m2
09:02 63.7 °F 45.1 °F 29.75 in North 8.9 mph 14.0 mph 51% 0.00 in meteobridge W/m2
09:08 63.9 °F 45.9 °F 29.75 in NE 6.0 mph 12.0 mph 52% 0.00 in meteobridge W/m2
09:14 64.4 °F 45.3 °F 29.75 in North 8.9 mph 12.0 mph 50% 0.00 in meteobridge W/m2
09:20 64.8 °F 45.7 °F 29.75 in North 10.1 mph 12.0 mph 50% 0.00 in meteobridge W/m2
09:26 64.6 °F 45.5 °F 29.75 in North 8.9 mph 14.0 mph 50% 0.00 in meteobridge W/m2
09:32 64.9 °F 46.4 °F 29.76 in NNW 6.0 mph 13.0 mph 51% 0.00 in meteobridge W/m2
09:39 65.5 °F 47.5 °F 29.76 in NNE 6.9 mph 10.0 mph 52% 0.00 in meteobridge W/m2
09:45 65.8 °F 47.1 °F 29.76 in North 11.0 mph 13.0 mph 51% 0.00 in meteobridge W/m2
09:51 65.8 °F 47.1 °F 29.76 in North 4.0 mph 13.0 mph 51% 0.00 in meteobridge W/m2
09:57 66.2 °F 47.5 °F 29.76 in North 6.0 mph 11.0 mph 51% 0.00 in meteobridge W/m2
10:03 67.1 °F 46.8 °F 29.76 in NNE 6.0 mph 9.0 mph 48% 0.00 in meteobridge W/m2
10:09 67.3 °F 48.0 °F 29.76 in NNE 6.9 mph 10.0 mph 50% 0.00 in meteobridge W/m2
10:15 68.0 °F 48.2 °F 29.76 in NNE 4.0 mph 9.0 mph 49% 0.00 in meteobridge W/m2
10:21 68.7 °F 49.3 °F 29.75 in North 6.0 mph 10.0 mph 50% 0.00 in meteobridge W/m2
10:27 69.4 °F 49.5 °F 29.75 in NNE 2.9 mph 9.0 mph 49% 0.00 in meteobridge W/m2
10:34 69.8 °F 49.3 °F 29.75 in NNE 2.0 mph 9.0 mph 48% 0.00 in meteobridge W/m2
10:40 70.3 °F 49.1 °F 29.74 in North 2.9 mph 5.0 mph 47% 0.00 in meteobridge W/m2
10:46 70.9 °F 49.6 °F 29.74 in North 2.9 mph 9.0 mph 47% 0.00 in meteobridge W/m2
10:52 70.9 °F 49.6 °F 29.74 in North 6.0 mph 9.0 mph 47% 0.00 in meteobridge W/m2
10:58 71.4 °F 48.4 °F 29.74 in Calm   3.0 mph 44% 0.00 in meteobridge W/m2
11:04 72.1 °F 49.1 °F 29.74 in North 2.9 mph 5.0 mph 44% 0.00 in meteobridge W/m2
11:10 72.0 °F 46.9 °F 29.74 in North 0.9 mph 5.0 mph 41% 0.00 in meteobridge W/m2
11:17 72.7 °F 47.7 °F 29.74 in ENE 4.9 mph 7.0 mph 41% 0.00 in meteobridge W/m2
11:23 73.4 °F 47.7 °F 29.73 in Calm   3.0 mph 40% 0.00 in meteobridge W/m2
11:29 74.1 °F 47.7 °F 29.73 in ENE 0.9 mph 3.0 mph 39% 0.00 in meteobridge W/m2
11:35 75.6 °F 50.9 °F 29.73 in ENE 0.9 mph 2.0 mph 42% 0.00 in meteobridge W/m2
11:41 75.6 °F 46.8 °F 29.73 in South 4.9 mph 7.0 mph 36% 0.00 in meteobridge W/m2
11:47 75.0 °F 48.4 °F 29.73 in SSE 4.0 mph 4.0 mph 39% 0.00 in meteobridge W/m2
11:53 75.9 °F 47.8 °F 29.73 in ESE 2.9 mph 5.0 mph 37% 0.00 in meteobridge W/m2
11:59 75.7 °F 47.7 °F 29.72 in South 2.9 mph 6.0 mph 37% 0.00 in meteobridge W/m2
12:05 75.6 °F 44.4 °F 29.73 in South 10.1 mph 14.0 mph 33% 0.00 in meteobridge W/m2
12:11 74.8 °F 45.3 °F 29.72 in SSE 2.9 mph 6.0 mph 35% 0.00 in meteobridge W/m2
12:18 76.3 °F 45.9 °F 29.72 in SSE 0.9 mph 4.0 mph 34% 0.00 in meteobridge W/m2
12:24 77.4 °F 46.8 °F 29.72 in ESE 6.9 mph 7.0 mph 34% 0.00 in meteobridge W/m2
12:30 75.9 °F 46.2 °F 29.72 in WSW 2.9 mph 12.0 mph 35% 0.00 in meteobridge W/m2
12:36 75.4 °F 47.3 °F 29.72 in South 4.0 mph 5.0 mph 37% 0.00 in meteobridge W/m2
12:42 75.4 °F 48.0 °F 29.72 in South 6.0 mph 14.0 mph 38% 0.00 in meteobridge W/m2
12:48 75.6 °F 46.8 °F 29.71 in SE 4.0 mph 11.0 mph 36% 0.00 in meteobridge W/m2
12:54 76.3 °F 47.3 °F 29.71 in South 4.0 mph 7.0 mph 36% 0.00 in meteobridge W/m2
13:00 76.6 °F 48.4 °F 29.70 in South 6.0 mph 12.0 mph 37% 0.00 in meteobridge W/m2
13:06 76.8 °F 47.8 °F 29.70 in SSW 2.0 mph 6.0 mph 36% 0.00 in meteobridge W/m2
13:12 75.4 °F 45.1 °F 29.70 in NW 2.0 mph 16.0 mph 34% 0.00 in meteobridge W/m2
13:18 75.6 °F 47.5 °F 29.70 in SE 6.9 mph 13.0 mph 37% 0.00 in meteobridge W/m2
13:25 75.0 °F 45.5 °F 29.70 in SSE 6.0 mph 13.0 mph 35% 0.00 in meteobridge W/m2
13:31 75.7 °F 46.2 °F 29.69 in South 8.1 mph 10.0 mph 35% 0.00 in meteobridge W/m2
13:37 76.6 °F 46.9 °F 29.69 in SSE 2.9 mph 12.0 mph 35% 0.00 in meteobridge W/m2
13:43 77.5 °F 45.3 °F 29.68 in SW 2.0 mph 10.0 mph 32% 0.00 in meteobridge W/m2
13:49 77.2 °F 45.0 °F 29.68 in South 4.0 mph 12.0 mph 32% 0.00 in meteobridge W/m2
13:55 77.5 °F 46.2 °F 29.67 in South 4.0 mph 6.0 mph 33% 0.00 in meteobridge W/m2
14:01 77.9 °F 45.7 °F 29.67 in SSW 10.1 mph 12.0 mph 32% 0.00 in meteobridge W/m2
14:07 78.3 °F 46.8 °F 29.67 in SSE 6.0 mph 9.0 mph 33% 0.00 in meteobridge W/m2
14:14 79.3 °F 46.9 °F 29.67 in SSE 4.0 mph 5.0 mph 32% 0.00 in meteobridge W/m2
14:20 79.5 °F 47.1 °F 29.67 in South 4.0 mph 12.0 mph 32% 0.00 in meteobridge W/m2
14:26 78.3 °F 46.0 °F 29.66 in SE 4.9 mph 14.0 mph 32% 0.00 in meteobridge W/m2
14:32 78.4 °F 46.9 °F 29.67 in SSW 11.0 mph 16.0 mph 33% 0.00 in meteobridge W/m2
14:38 78.1 °F 44.1 °F 29.66 in SSW 4.9 mph 10.0 mph 30% 0.00 in meteobridge W/m2
14:44 78.8 °F 45.7 °F 29.65 in South 6.0 mph 13.0 mph 31% 0.00 in meteobridge W/m2
14:50 78.8 °F 44.8 °F 29.65 in South 0.9 mph 6.0 mph 30% 0.00 in meteobridge W/m2
14:56 78.8 °F 43.9 °F 29.65 in South 11.0 mph 11.0 mph 29% 0.00 in meteobridge W/m2
15:03 79.2 °F 46.8 °F 29.65 in SSE 4.9 mph 9.0 mph 32% 0.00 in meteobridge W/m2
15:09 78.6 °F 45.5 °F 29.65 in South 4.9 mph 8.0 mph 31% 0.00 in meteobridge W/m2
15:15 79.0 °F 45.7 °F 29.64 in SSE 6.9 mph 10.0 mph 31% 0.00 in meteobridge W/m2
15:21 79.3 °F 45.1 °F 29.64 in SSE 6.0 mph 13.0 mph 30% 0.00 in meteobridge W/m2
15:27 79.9 °F 45.7 °F 29.63 in South 6.9 mph 15.0 mph 30% 0.00 in meteobridge W/m2
15:34 79.2 °F 45.9 °F 29.64 in South 10.1 mph 16.0 mph 31% 0.00 in meteobridge W/m2
15:40 79.0 °F 45.0 °F 29.63 in SSE 4.9 mph 9.0 mph 30% 0.00 in meteobridge W/m2
15:46 78.8 °F 44.8 °F 29.62 in SSW 8.9 mph 12.0 mph 30% 0.00 in meteobridge W/m2
15:52 79.2 °F 47.7 °F 29.62 in SSE 6.9 mph 10.0 mph 33% 0.00 in meteobridge W/m2
15:58 79.5 °F 47.8 °F 29.63 in South 15.0 mph 17.0 mph 33% 0.00 in meteobridge W/m2
16:04 78.4 °F 46.9 °F 29.62 in SSE 6.9 mph 9.0 mph 33% 0.00 in meteobridge W/m2
16:10 79.2 °F 45.1 °F 29.62 in South 10.1 mph 11.0 mph 30% 0.00 in meteobridge W/m2
16:16 79.5 °F 46.2 °F 29.62 in SSW 4.9 mph 13.0 mph 31% 0.00 in meteobridge W/m2
16:22 78.8 °F 44.8 °F 29.62 in SSW 8.9 mph 14.0 mph 30% 0.00 in meteobridge W/m2
16:28 78.3 °F 45.1 °F 29.62 in SSE 8.1 mph 14.0 mph 31% 0.00 in meteobridge W/m2
16:34 78.4 °F 44.4 °F 29.62 in South 4.0 mph 11.0 mph 30% 0.00 in meteobridge W/m2
16:40 78.1 °F 44.1 °F 29.62 in SSE 6.0 mph 12.0 mph 30% 0.00 in meteobridge W/m2
16:46 77.7 °F 43.9 °F 29.62 in South 6.9 mph 13.0 mph 30% 0.00 in meteobridge W/m2
16:52 78.3 °F 43.3 °F 29.62 in South 2.9 mph 11.0 mph 29% 0.00 in meteobridge W/m2
16:58 79.0 °F 45.7 °F 29.62 in SSW 15.0 mph 17.0 mph 31% 0.00 in meteobridge W/m2
17:04 78.3 °F 44.2 °F 29.62 in South 6.9 mph 11.0 mph 30% 0.00 in meteobridge W/m2
17:11 78.1 °F 45.0 °F 29.62 in South 6.9 mph 9.0 mph 31% 0.00 in meteobridge W/m2
17:17 77.5 °F 44.6 °F 29.62 in SSW 10.1 mph 12.0 mph 31% 0.00 in meteobridge W/m2
17:23 77.4 °F 46.0 °F 29.62 in SSE 4.0 mph 10.0 mph 33% 0.00 in meteobridge W/m2
17:29 77.5 °F 44.6 °F 29.62 in SSE 10.1 mph 13.0 mph 31% 0.00 in meteobridge W/m2
17:35 77.2 °F 44.2 °F 29.62 in SSW 4.0 mph 10.0 mph 31% 0.00 in meteobridge W/m2
17:41 76.8 °F 43.9 °F 29.61 in South 10.1 mph 12.0 mph 31% 0.00 in meteobridge W/m2
17:47 76.6 °F 43.7 °F 29.61 in South 4.9 mph 11.0 mph 31% 0.00 in meteobridge W/m2
17:53 76.6 °F 43.7 °F 29.61 in South 6.0 mph 10.0 mph 31% 0.00 in meteobridge W/m2
18:00 76.3 °F 45.9 °F 29.61 in South 2.9 mph 9.0 mph 34% 0.00 in meteobridge W/m2
18:06 75.6 °F 45.1 °F 29.61 in SSE 6.0 mph 11.0 mph 34% 0.00 in meteobridge W/m2
18:12 75.0 °F 45.5 °F 29.61 in South 4.0 mph 12.0 mph 35% 0.00 in meteobridge W/m2
18:18 75.0 °F 44.8 °F 29.61 in SSE 6.9 mph 12.0 mph 34% 0.00 in meteobridge W/m2
18:24 74.7 °F 44.4 °F 29.61 in South 6.0 mph 16.0 mph 34% 0.00 in meteobridge W/m2
18:30 74.1 °F 44.8 °F 29.61 in South 6.0 mph 9.0 mph 35% 0.00 in meteobridge W/m2
18:36 73.8 °F 44.4 °F 29.61 in SSE 2.9 mph 11.0 mph 35% 0.00 in meteobridge W/m2
18:43 73.6 °F 45.0 °F 29.61 in South 6.0 mph 10.0 mph 36% 0.00 in meteobridge W/m2
18:49 73.0 °F 45.1 °F 29.61 in South 4.0 mph 10.0 mph 37% 0.00 in meteobridge W/m2
18:55 72.3 °F 44.6 °F 29.61 in South 6.9 mph 11.0 mph 37% 0.00 in meteobridge W/m2
19:01 71.8 °F 44.8 °F 29.61 in South 4.0 mph 6.0 mph 38% 0.00 in meteobridge W/m2
19:07 71.8 °F 44.8 °F 29.61 in South 4.0 mph 4.0 mph 38% 0.00 in meteobridge W/m2
19:14 71.8 °F 44.8 °F 29.61 in South 4.0 mph -999.0 mph 38% 0.00 in meteobridge W/m2
Regenstein, Windhoek, Namibia
Compliments of Weather Underground - 2.5 mb